Time;durP1;ratioP1;P1;durP2;ratioP2;P2;SDS_P1;SDS_P2;PMS_P1;PMS_P2;Temp;Humidity;BMP_temperature;BMP_pressure;BME280_temperature;BME280_humidity;BME280_pressure;Samples;Min_cycle;Max_cycle;Signal;HPM_P1;HPM_P2
2022/06/10 00:00:54;;;;;;;11.63;3.63;;;;;;;13.39;94.76;101891.91;4994270;28;20053;-74
2022/06/10 00:03:21;;;;;;;11.38;3.58;;;;;;;13.42;93.35;101895.03;4996321;28;20109;-73
2022/06/10 00:05:49;;;;;;;16.73;4.25;;;;;;;13.38;95.51;101890.25;4995259;28;20037;-73
2022/06/10 00:08:23;;;;;;;12.27;3.78;;;;;;;13.37;94.57;101892.13;4996425;28;20109;-74
2022/06/10 00:10:50;;;;;;;12.57;4.43;;;;;;;13.38;95.19;101887.53;4995223;28;20498;-73
2022/06/10 00:13:20;;;;;;;14.10;3.70;;;;;;;13.37;94.96;101888.56;4994867;28;20026;-73
2022/06/10 00:15:47;;;;;;;13.05;3.95;;;;;;;13.32;94.70;101885.66;4994996;28;20037;-74
2022/06/10 00:18:13;;;;;;;11.57;4.00;;;;;;;13.28;96.11;101883.34;4994732;28;20048;-73
2022/06/10 00:20:39;;;;;;;10.32;3.63;;;;;;;13.34;96.43;101887.13;4995953;28;20034;-74
2022/06/10 00:23:06;;;;;;;9.90;3.40;;;;;;;13.34;96.87;101884.41;4994960;28;20076;-76
2022/06/10 00:25:31;;;;;;;10.75;3.55;;;;;;;13.32;97.49;101886.47;4994462;28;20040;-77
2022/06/10 00:27:56;;;;;;;13.57;3.95;;;;;;;13.33;98.35;101888.16;4994573;28;20030;-77
2022/06/10 00:30:28;;;;;;;14.50;3.78;;;;;;;13.38;98.35;101887.53;4994672;28;20112;-75
2022/06/10 00:32:54;;;;;;;13.93;3.90;;;;;;;13.35;97.66;101886.06;4994700;28;20540;-77
2022/06/10 00:35:20;;;;;;;12.10;3.85;;;;;;;13.38;97.80;101884.81;4994849;28;20118;-74
2022/06/10 00:37:45;;;;;;;13.65;3.78;;;;;;;13.39;94.87;101878.31;4995681;28;20034;-74
2022/06/10 00:40:18;;;;;;;11.23;3.45;;;;;;;13.40;98.13;101882.69;4991419;28;20027;-75
2022/06/10 00:42:43;;;;;;;13.95;3.90;;;;;;;13.41;97.92;101887.09;4975206;28;20359;-75
2022/06/10 00:45:47;;;;;;;13.85;3.83;;;;;;;13.46;97.81;101885.38;4989965;28;20037;-74
2022/06/10 00:48:17;;;;;;;13.05;3.83;;;;;;;13.44;98.48;101884.75;4992410;28;20709;-74
2022/06/10 00:50:44;;;;;;;13.40;3.65;;;;;;;13.40;97.79;101882.69;4974553;28;20043;-74
2022/06/10 00:53:13;;;;;;;17.33;3.95;;;;;;;13.40;96.51;101877.25;4978329;28;20035;-75
2022/06/10 00:55:42;;;;;;;11.55;3.78;;;;;;;13.40;98.10;101879.97;4995388;28;20117;-74
2022/06/10 00:58:15;;;;;;;10.48;3.47;;;;;;;13.47;98.58;101864.47;4994253;28;20061;-76
2022/06/10 01:00:41;;;;;;;14.02;3.80;;;;;;;13.50;98.51;101866.75;4993401;28;20038;-75
2022/06/10 01:03:06;;;;;;;9.23;3.35;;;;;;;13.52;99.25;101871.97;4994020;28;20030;-75
2022/06/10 01:05:32;;;;;;;11.13;3.75;;;;;;;13.52;98.52;101866.53;4995810;28;20464;-75
2022/06/10 01:08:08;;;;;;;12.38;3.45;;;;;;;13.58;98.49;101869.19;4995182;28;20436;-75
2022/06/10 01:10:57;;;;;;;14.30;3.67;;;;;;;13.63;96.70;101871.25;4994666;28;20109;-74
2022/06/10 01:13:58;;;;;;;11.75;3.35;;;;;;;13.71;97.26;101873.72;4994114;28;20041;-75
2022/06/10 01:16:42;;;;;;;13.05;3.60;;;;;;;13.70;94.06;101882.09;4978280;28;20038;-75
2022/06/10 01:19:47;;;;;;;13.18;3.50;;;;;;;13.72;97.41;101874.53;4994749;28;20045;-74
2022/06/10 01:22:30;;;;;;;12.95;3.42;;;;;;;13.67;93.13;101874.38;4995328;28;20069;-74
2022/06/10 01:25:33;;;;;;;16.58;3.42;;;;;;;13.73;92.91;101876.22;4993945;28;20035;-74
2022/06/10 01:28:42;;;;;;;16.20;3.35;;;;;;;13.74;91.73;101875.13;4995022;28;20034;-74
2022/06/10 01:31:13;;;;;;;10.05;3.05;;;;;;;13.70;91.92;101879.38;4993858;28;20125;-75
2022/06/10 01:34:04;;;;;;;13.90;3.45;;;;;;;13.76;94.87;101879.31;4993543;28;20085;-74
2022/06/10 01:36:48;;;;;;;11.77;4.03;;;;;;;13.74;94.62;101880.56;4994547;28;20022;-74
2022/06/10 01:39:31;;;;;;;11.07;3.10;;;;;;;13.75;95.63;101877.66;4994790;28;20284;-75
2022/06/10 01:42:18;;;;;;;14.70;3.10;;;;;;;13.76;91.62;101873.88;4995335;28;20478;-75
2022/06/10 01:45:19;;;;;;;12.35;2.97;;;;;;;13.81;92.74;101878.63;4994114;28;20553;-75
2022/06/10 01:47:59;;;;;;;10.43;3.00;;;;;;;13.78;89.82;101882.66;4975821;28;20035;-75
2022/06/10 01:50:46;;;;;;;13.52;3.13;;;;;;;13.77;90.70;101874.72;4994503;28;20034;-75
2022/06/10 01:53:20;;;;;;;10.95;2.90;;;;;;;13.78;88.76;101876.38;4994671;28;20041;-75
2022/06/10 01:55:54;;;;;;;12.02;2.78;;;;;;;13.80;88.97;101883.25;4994856;28;20461;-75
2022/06/10 01:58:45;;;;;;;12.23;2.83;;;;;;;13.86;88.16;101875.25;4994293;28;20473;-74
2022/06/10 02:01:20;;;;;;;16.40;3.58;;;;;;;13.85;87.88;101868.16;4992090;28;20030;-74
2022/06/10 02:04:20;;;;;;;11.45;2.75;;;;;;;13.88;89.61;101873.97;4994164;28;20053;-75
2022/06/10 02:06:48;;;;;;;12.23;2.90;;;;;;;13.86;88.33;101877.97;4985004;28;20053;-74
2022/06/10 02:09:18;;;;;;;13.10;3.17;;;;;;;13.82;88.46;101880.31;4994054;28;20033;-76
2022/06/10 02:11:50;;;;;;;11.18;2.97;;;;;;;13.83;88.32;101887.44;4994605;28;20061;-76
2022/06/10 02:14:30;;;;;;;13.65;3.15;;;;;;;13.82;88.87;101888.47;4993958;28;20034;-74
2022/06/10 02:16:57;;;;;;;9.18;2.75;;;;;;;13.77;89.00;101885.59;4994417;28;20070;-76
2022/06/10 02:19:37;;;;;;;15.70;3.33;;;;;;;13.79;89.48;101884.31;4993701;28;20041;-74
2022/06/10 02:22:22;;;;;;;12.65;3.22;;;;;;;13.80;89.51;101879.72;4993789;28;20050;-76
2022/06/10 02:24:57;;;;;;;11.20;2.80;;;;;;;13.78;89.77;101876.38;4994099;28;20478;-75
2022/06/10 02:27:27;;;;;;;9.15;2.70;;;;;;;13.80;89.40;101883.25;4989456;28;20234;-75
2022/06/10 02:30:08;;;;;;;11.32;3.28;;;;;;;13.78;89.67;101879.09;4990230;28;20044;-75
2022/06/10 02:32:35;;;;;;;12.65;3.00;;;;;;;13.77;90.61;101886.41;4993901;28;20038;-75
2022/06/10 02:35:02;;;;;;;12.57;2.85;;;;;;;13.76;89.85;101887.47;4993942;28;20552;-78
2022/06/10 02:37:54;;;;;;;12.15;3.13;;;;;;;13.77;89.95;101889.16;4992586;28;20117;-74
2022/06/10 02:40:29;;;;;;;10.73;2.70;;;;;;;13.77;92.93;101893.75;4993263;28;20039;-77
2022/06/10 02:43:08;;;;;;;9.35;2.80;;;;;;;13.80;90.34;101890.59;4993824;28;20577;-75
2022/06/10 02:45:54;;;;;;;12.05;2.95;;;;;;;13.84;90.09;101899.97;4993265;28;20398;-76
2022/06/10 02:48:28;;;;;;;13.45;3.15;;;;;;;13.84;90.11;101902.69;4992130;28;20128;-76
2022/06/10 02:50:54;;;;;;;12.68;2.80;;;;;;;13.84;89.97;101905.41;4993594;28;20037;-76
2022/06/10 02:53:19;;;;;;;8.32;2.92;;;;;;;13.81;90.75;101897.69;4992184;28;20034;-76
2022/06/10 02:55:44;;;;;;;9.90;3.13;;;;;;;13.78;91.15;101893.53;4992185;28;20026;-76
2022/06/10 03:01:13;;;;;;;15.88;3.22;;;;;;;13.84;92.27;101891.81;4991233;28;20049;-76
2022/06/10 03:04:00;;;;;;;10.50;2.60;;;;;;;13.89;91.29;101900.16;4993451;28;20050;-76
2022/06/10 03:06:49;;;;;;;8.95;2.63;;;;;;;13.91;91.13;101900.75;4991995;28;20030;-76
2022/06/10 03:09:23;;;;;;;12.23;2.92;;;;;;;13.90;90.85;101904.50;4992701;28;20030;-76
2022/06/10 03:12:00;;;;;;;12.95;3.03;;;;;;;13.92;90.73;101907.88;4991981;28;20057;-76
2022/06/10 03:14:25;;;;;;;10.73;2.88;;;;;;;13.91;92.88;101911.63;4993216;28;20033;-76
2022/06/10 03:17:21;;;;;;;8.70;2.50;;;;;;;13.95;93.82;101901.97;4993148;28;20109;-76
2022/06/10 03:20:01;;;;;;;13.95;2.60;;;;;;;13.94;92.32;101916.63;4988205;28;20353;-76
2022/06/10 03:22:45;;;;;;;10.05;2.83;;;;;;;13.95;91.73;101915.59;4973373;28;20054;-76
2022/06/10 03:25:24;;;;;;;9.35;3.03;;;;;;;13.97;91.57;101918.91;4990939;28;20121;-76
2022/06/10 03:28:31;;;;;;;14.63;3.22;;;;;;;13.95;91.79;101917.47;4991779;28;20355;-76
2022/06/10 03:31:01;;;;;;;10.98;2.92;;;;;;;13.93;91.20;101914.13;4973865;28;20039;-76
2022/06/10 03:33:32;;;;;;;14.77;3.05;;;;;;;13.95;91.83;101918.31;4993210;28;20526;-76
2022/06/10 03:36:04;;;;;;;10.93;3.30;;;;;;;13.97;92.02;101929.78;4993205;28;20080;-76
2022/06/10 03:38:32;;;;;;;13.55;3.08;;;;;;;13.95;92.66;101929.19;4992955;28;20026;-76
2022/06/10 03:41:01;;;;;;;11.10;3.08;;;;;;;13.95;93.15;101929.19;4993163;28;20026;-76
2022/06/10 03:43:26;;;;;;;10.40;2.72;;;;;;;13.93;95.90;101914.13;4991213;28;20045;-76
2022/06/10 03:45:59;;;;;;;16.02;2.80;;;;;;;13.96;98.07;101911.78;4992855;28;20117;-76
2022/06/10 03:48:26;;;;;;;10.68;3.03;;;;;;;13.96;99.63;101909.06;4992304;28;20030;-76
2022/06/10 03:50:52;;;;;;;13.45;3.00;;;;;;;13.96;100.00;101909.06;4991570;28;20069;-76
2022/06/10 03:53:21;;;;;;;11.38;2.75;;;;;;;14.00;99.41;101914.91;4992533;28;20058;-76
2022/06/10 03:55:47;;;;;;;13.50;3.20;;;;;;;14.00;96.88;101912.19;4992014;28;20030;-76
2022/06/10 03:58:13;;;;;;;9.10;2.92;;;;;;;14.00;99.64;101918.47;4992675;28;20105;-76
2022/06/10 04:00:39;;;;;;;11.07;2.60;;;;;;;14.03;96.61;101924.53;4990511;28;20031;-76
2022/06/10 04:03:04;;;;;;;8.93;2.63;;;;;;;14.02;98.74;101929.13;4991355;28;20374;-76
2022/06/10 04:05:30;;;;;;;11.73;2.70;;;;;;;14.05;96.53;101923.25;4991436;28;20042;-75
2022/06/10 04:07:55;;;;;;;11.05;2.63;;;;;;;14.08;96.21;101930.97;4992026;28;20030;-75
2022/06/10 04:10:24;;;;;;;12.55;2.80;;;;;;;14.06;95.25;101926.81;4992437;28;20058;-75
2022/06/10 04:12:50;;;;;;;11.95;2.72;;;;;;;14.05;96.63;101919.69;4992722;28;20432;-75
2022/06/10 04:15:16;;;;;;;17.60;2.70;;;;;;;14.08;95.80;101930.13;4992875;28;20084;-75
2022/06/10 04:17:48;;;;;;;13.05;2.55;;;;;;;14.13;96.64;101935.72;4990765;28;20401;-75
2022/06/10 04:20:23;;;;;;;15.82;2.80;;;;;;;14.13;98.17;101931.16;4991564;28;20035;-75
2022/06/10 04:22:49;;;;;;;15.32;2.88;;;;;;;14.16;100.00;101935.28;4991086;28;20486;-75
2022/06/10 04:25:14;;;;;;;11.52;2.55;;;;;;;14.17;98.99;101940.50;4991552;28;20031;-75
2022/06/10 04:27:40;;;;;;;10.27;2.55;;;;;;;14.17;99.17;101945.13;4991198;28;20041;-75
2022/06/10 04:30:20;;;;;;;9.05;2.63;;;;;;;14.20;99.08;101941.97;4992686;28;20030;-75
2022/06/10 04:32:45;;;;;;;11.40;2.70;;;;;;;14.21;100.00;101937.38;4992646;28;20486;-75
2022/06/10 04:35:11;;;;;;;15.00;2.72;;;;;;;14.23;100.00;101944.25;4995028;28;20038;-75
2022/06/10 04:37:36;;;;;;;7.22;2.28;;;;;;;14.22;100.00;101934.44;4995629;28;20493;-75
2022/06/10 04:40:01;;;;;;;10.50;2.60;;;;;;;14.26;100.00;101941.06;4994947;28;20117;-75
2022/06/10 04:42:27;;;;;;;12.38;2.50;;;;;;;14.28;100.00;101938.97;4991286;28;20514;-75
2022/06/10 04:44:52;;;;;;;11.93;2.70;;;;;;;14.28;100.00;101941.69;4976244;28;20042;-75
2022/06/10 04:47:17;;;;;;;10.13;2.50;;;;;;;14.29;100.00;101943.34;4991455;28;20050;-75
2022/06/10 04:49:42;;;;;;;10.98;2.38;;;;;;;14.28;100.00;101949.88;4995480;28;20161;-75
2022/06/10 04:52:08;;;;;;;10.25;2.22;;;;;;;14.31;99.11;101948.56;4993868;28;20134;-75
2022/06/10 04:54:33;;;;;;;9.05;2.67;;;;;;;14.33;100.00;101944.56;4995484;28;20034;-75
2022/06/10 04:56:58;;;;;;;10.80;2.80;;;;;;;14.33;100.00;101941.84;4995414;28;20057;-75
2022/06/10 04:59:23;;;;;;;12.05;2.88;;;;;;;14.33;100.00;101944.56;4994321;28;20390;-75
2022/06/10 05:01:49;;;;;;;11.38;2.75;;;;;;;14.35;100.00;101949.78;4993027;28;20026;-75
2022/06/10 05:04:15;;;;;;;12.38;2.85;;;;;;;14.34;100.00;101942.66;4995295;28;20030;-75
2022/06/10 05:06:40;;;;;;;11.57;2.67;;;;;;;14.36;100.00;101935.13;4995702;28;20441;-75
2022/06/10 05:09:05;;;;;;;10.20;2.83;;;;;;;14.39;100.00;101939.28;4995636;28;20030;-75
2022/06/10 05:11:31;;;;;;;14.93;3.42;;;;;;;14.38;98.23;101938.47;4994175;28;20478;-75
2022/06/10 05:13:57;;;;;;;13.38;2.85;;;;;;;14.40;100.00;101936.34;4995205;28;20084;-75
2022/06/10 05:16:23;;;;;;;12.05;3.05;;;;;;;14.44;98.30;101932.09;4995481;28;20030;-75
2022/06/10 05:18:48;;;;;;;11.32;3.03;;;;;;;14.47;99.32;101942.56;4994131;28;20038;-75
2022/06/10 05:21:14;;;;;;;11.52;2.80;;;;;;;14.47;100.00;101933.56;4995525;28;20030;-75
2022/06/10 05:23:41;;;;;;;10.02;2.50;;;;;;;14.52;100.00;101933.72;4994830;28;20054;-75
2022/06/10 05:26:07;;;;;;;16.65;2.88;;;;;;;14.50;100.00;101925.75;4995145;28;20056;-75
2022/06/10 05:28:32;;;;;;;13.15;2.97;;;;;;;14.51;100.00;101923.88;4994602;28;20041;-75
2022/06/10 05:30:57;;;;;;;16.02;3.40;;;;;;;14.53;100.00;101930.75;4994853;28;20458;-75
2022/06/10 05:33:22;;;;;;;11.15;2.53;;;;;;;14.58;99.33;101931.97;4995104;28;20077;-75
2022/06/10 05:35:48;;;;;;;12.63;3.08;;;;;;;14.60;100.00;101930.72;4994559;28;20034;-75
2022/06/10 05:38:14;;;;;;;9.45;2.90;;;;;;;14.62;99.15;101925.06;4995217;28;20117;-75
2022/06/10 05:40:40;;;;;;;13.05;3.08;;;;;;;14.69;100.00;101928.56;4993311;28;20035;-75
2022/06/10 05:43:06;;;;;;;13.05;3.03;;;;;;;14.75;99.04;101926.78;4994983;28;20023;-74
2022/06/10 05:45:31;;;;;;;11.73;3.03;;;;;;;14.76;98.75;101923.03;4994764;28;20485;-74
2022/06/10 05:48:00;;;;;;;12.95;3.00;;;;;;;14.79;98.25;101925.28;4994275;28;20039;-74
2022/06/10 05:50:30;;;;;;;14.20;3.08;;;;;;;14.79;99.47;101923.38;4994855;28;20026;-75
2022/06/10 05:52:55;;;;;;;9.73;2.78;;;;;;;14.86;99.12;101929.59;4993898;28;20109;-75
2022/06/10 05:55:21;;;;;;;10.43;3.00;;;;;;;14.94;98.79;101927.63;4986422;28;20474;-74
2022/06/10 05:57:50;;;;;;;12.57;3.00;;;;;;;14.95;97.41;101927.41;4982043;28;20430;-74
2022/06/10 06:00:21;;;;;;;11.40;2.83;;;;;;;14.98;99.69;101924.22;4988658;28;20437;-74
2022/06/10 06:02:46;;;;;;;10.65;2.72;;;;;;;15.02;100.00;101917.28;4991927;28;20030;-74
2022/06/10 06:05:12;;;;;;;8.70;2.28;;;;;;;15.09;98.26;101927.25;4994727;28;20030;-74
2022/06/10 06:07:39;;;;;;;8.80;2.50;;;;;;;15.15;99.22;101929.06;4994068;28;20026;-74
2022/06/10 06:10:06;;;;;;;15.30;2.70;;;;;;;15.17;98.60;101924.19;4994466;28;20066;-74
2022/06/10 06:12:31;;;;;;;10.38;2.38;;;;;;;15.22;99.88;101932.53;4992799;28;20026;-74
2022/06/10 06:14:56;;;;;;;8.10;2.55;;;;;;;15.24;96.03;101938.59;4992954;28;20450;-74
2022/06/10 06:17:22;;;;;;;13.43;2.90;;;;;;;15.30;97.98;101934.13;4994024;28;20030;-74
2022/06/10 06:19:48;;;;;;;9.48;2.28;;;;;;;15.34;95.29;101940.75;4994172;28;20026;-74
2022/06/10 06:22:14;;;;;;;9.77;2.40;;;;;;;15.37;95.68;101932.97;4992340;28;20181;-74
2022/06/10 06:24:39;;;;;;;11.23;2.45;;;;;;;15.39;94.26;101933.56;4994322;28;20508;-74
2022/06/10 06:27:07;;;;;;;8.85;2.38;;;;;;;15.42;98.20;101940.44;4993830;28;20101;-74
2022/06/10 06:29:33;;;;;;;11.50;2.20;;;;;;;15.44;94.67;101943.75;4993519;28;20469;-74
2022/06/10 06:31:58;;;;;;;13.73;2.88;;;;;;;15.46;94.74;101949.00;4993816;28;20046;-74
2022/06/10 06:34:25;;;;;;;8.63;2.38;;;;;;;15.47;98.92;101953.41;4992892;28;20066;-74
2022/06/10 06:36:53;;;;;;;10.85;2.42;;;;;;;15.49;93.81;101956.72;4992142;28;20030;-74
2022/06/10 06:39:23;;;;;;;12.10;2.55;;;;;;;15.49;93.42;101951.25;4994043;28;20061;-74
2022/06/10 06:41:48;;;;;;;14.93;2.20;;;;;;;15.55;92.63;101959.38;4991938;28;20053;-74
2022/06/10 06:44:14;;;;;;;11.00;1.92;;;;;;;15.55;93.20;101955.78;4993709;28;20466;-74
2022/06/10 06:46:42;;;;;;;12.50;2.47;;;;;;;15.60;93.17;101962.22;4993878;28;20109;-74
2022/06/10 06:49:13;;;;;;;8.23;2.10;;;;;;;15.64;93.17;101962.59;4988662;28;20125;-74
2022/06/10 06:51:39;;;;;;;10.90;2.10;;;;;;;15.64;92.46;101962.59;4975497;28;20118;-74
2022/06/10 06:54:05;;;;;;;8.82;2.40;;;;;;;15.67;93.42;101961.28;4993217;28;20038;-74
2022/06/10 06:56:30;;;;;;;10.40;2.05;;;;;;;15.73;91.87;101971.28;4991786;28;20029;-74
2022/06/10 06:58:56;;;;;;;11.30;2.97;;;;;;;15.75;90.53;101967.25;4993132;28;20069;-74
2022/06/10 07:01:22;;;;;;;10.65;2.20;;;;;;;15.76;91.73;101966.19;4990858;28;20034;-74
2022/06/10 07:03:47;;;;;;;9.05;2.03;;;;;;;15.78;92.65;101974.19;4993142;28;20065;-74
2022/06/10 07:06:12;;;;;;;9.05;2.28;;;;;;;15.82;93.67;101969.09;4993565;28;20042;-74
2022/06/10 07:08:38;;;;;;;10.90;2.17;;;;;;;15.80;91.06;101965.78;4993401;28;20121;-74
2022/06/10 07:11:04;;;;;;;8.80;2.00;;;;;;;15.86;92.01;101967.56;4992799;28;20042;-74
2022/06/10 07:13:30;;;;;;;6.55;2.13;;;;;;;15.91;91.08;101967.69;4993608;28;20034;-74
2022/06/10 07:15:58;;;;;;;6.63;1.90;;;;;;;15.98;90.59;101962.13;4992956;28;20525;-74
2022/06/10 07:18:23;;;;;;;6.53;2.13;;;;;;;16.01;91.60;101967.94;4992114;28;20038;-75
2022/06/10 07:20:49;;;;;;;10.90;2.25;;;;;;;16.10;91.93;101960.25;4992124;28;20088;-74
2022/06/10 07:23:15;;;;;;;6.68;1.88;;;;;;;16.11;89.44;101959.19;4993275;28;20453;-74
2022/06/10 07:25:41;;;;;;;8.77;2.30;;;;;;;16.24;88.06;101971.78;4993079;28;20046;-74
2022/06/10 07:28:08;;;;;;;8.27;2.20;;;;;;;16.34;89.85;101966.56;4992737;28;20073;-74
2022/06/10 07:30:34;;;;;;;9.30;2.25;;;;;;;16.36;86.52;101972.63;4992087;28;20038;-74
2022/06/10 07:33:00;;;;;;;9.32;2.15;;;;;;;16.35;90.05;101967.41;4992959;28;20032;-74
2022/06/10 07:35:27;;;;;;;7.10;2.05;;;;;;;16.32;91.33;101976.06;4993164;28;20097;-74
2022/06/10 07:37:54;;;;;;;9.45;2.00;;;;;;;16.33;92.52;101973.09;4992585;28;20042;-74
2022/06/10 07:43:17;;;;;;;7.05;1.70;;;;;;;16.34;87.05;101974.78;4993171;28;20121;-74
2022/06/10 07:45:42;;;;;;;7.15;1.90;;;;;;;16.33;91.04;101972.28;4991380;28;20537;-74
2022/06/10 07:48:08;;;;;;;7.63;1.63;;;;;;;16.31;87.15;101977.97;4991874;28;20109;-74
2022/06/10 07:50:34;;;;;;;9.43;1.92;;;;;;;16.32;92.96;101966.00;4992065;28;20478;-74
2022/06/10 07:52:59;;;;;;;13.55;2.25;;;;;;;16.36;88.33;101967.16;4991574;28;20133;-74
2022/06/10 07:55:25;;;;;;;8.13;1.50;;;;;;;16.38;87.76;101961.47;4991538;28;20417;-74
2022/06/10 07:57:52;;;;;;;9.82;1.90;;;;;;;16.44;86.82;101960.50;4991513;28;20034;-77
2022/06/10 08:00:21;;;;;;;7.13;1.88;;;;;;;16.50;87.64;101956.84;4990687;28;20023;-77
2022/06/10 08:02:47;;;;;;;9.68;1.98;;;;;;;16.58;88.87;101956.47;4988763;28;20042;-78
2022/06/10 08:05:17;;;;;;;8.38;1.67;;;;;;;16.66;87.52;101968.94;4991986;28;20048;-81
2022/06/10 08:07:43;;;;;;;7.80;1.70;;;;;;;16.70;85.57;101961.94;4995265;28;20026;-78
2022/06/10 08:10:24;;;;;;;8.00;1.75;;;;;;;16.81;83.94;101974.75;4997435;28;20034;-78
2022/06/10 08:12:49;;;;;;;5.68;2.05;;;;;;;16.89;82.51;101970.84;4999904;28;20466;-78
2022/06/10 08:15:16;;;;;;;7.93;1.75;;;;;;;16.98;81.59;101979.53;4997790;28;20049;-78
2022/06/10 08:17:42;;;;;;;11.57;1.92;;;;;;;17.03;80.78;101974.19;4996735;28;20022;-77
2022/06/10 08:20:24;;;;;;;9.30;2.25;;;;;;;17.09;82.17;101984.16;4991063;28;20041;-77
2022/06/10 08:22:49;;;;;;;9.00;2.28;;;;;;;17.15;79.41;101969.50;4975488;28;20046;-74
2022/06/10 08:25:16;;;;;;;13.02;2.75;;;;;;;17.20;77.62;101978.91;4983064;28;20038;-76
2022/06/10 08:27:42;;;;;;;15.05;2.72;;;;;;;17.22;78.45;101974.00;4996098;28;20033;-76
2022/06/10 08:30:12;;;;;;;7.75;2.33;;;;;;;17.25;77.76;101976.25;4994884;28;20030;-77
2022/06/10 08:32:37;;;;;;;11.60;2.40;;;;;;;17.25;77.10;101976.25;4995693;28;20077;-76
2022/06/10 08:35:04;;;;;;;12.57;2.75;;;;;;;17.26;76.18;101973.28;4995777;28;20034;-75
2022/06/10 08:37:30;;;;;;;9.70;2.55;;;;;;;17.25;77.10;101976.25;4997302;28;20121;-75
2022/06/10 08:39:56;;;;;;;12.98;2.90;;;;;;;17.28;76.74;101983.97;4995508;28;20026;-78
2022/06/10 08:42:41;;;;;;;12.05;3.22;;;;;;;17.28;76.97;101978.50;4996065;28;20037;-76
2022/06/10 08:45:28;;;;;;;15.10;3.17;;;;;;;17.31;78.28;101975.28;4992348;28;20041;-77
2022/06/10 08:48:17;;;;;;;17.60;3.15;;;;;;;17.39;78.47;101976.81;4976232;28;20031;-76
2022/06/10 08:50:50;;;;;;;12.48;3.55;;;;;;;17.42;76.08;101968.09;4975907;28;20085;-75
2022/06/10 08:53:44;;;;;;;18.90;3.13;;;;;;;17.52;76.83;101966.41;4975426;28;20413;-75
2022/06/10 08:56:22;;;;;;;12.77;2.70;;;;;;;17.59;75.70;101966.25;4990712;28;20030;-74
2022/06/10 08:59:18;;;;;;;15.15;3.40;;;;;;;17.71;74.52;101958.81;4994788;28;20045;-74
2022/06/10 09:02:09;;;;;;;17.92;2.90;;;;;;;17.86;73.38;101954.69;4993267;28;20393;-77
2022/06/10 09:05:00;;;;;;;12.25;2.72;;;;;;;17.94;74.20;101956.25;4994705;28;20097;-78
2022/06/10 09:07:32;;;;;;;12.13;2.80;;;;;;;18.01;73.14;101962.38;4995901;28;20488;-76
2022/06/10 09:09:59;;;;;;;11.30;2.28;;;;;;;18.00;73.03;101957.97;4995558;28;20073;-77
2022/06/10 09:12:51;;;;;;;13.57;2.42;;;;;;;18.02;74.36;101955.81;4996239;28;20030;-75
2022/06/10 09:15:20;;;;;;;8.60;2.65;;;;;;;18.04;73.63;101956.38;4993906;28;20042;-74
2022/06/10 09:17:53;;;;;;;16.00;2.55;;;;;;;18.12;73.04;101961.47;4995540;28;20030;-74
2022/06/10 09:20:37;;;;;;;9.70;2.60;;;;;;;18.20;73.76;101962.97;4994998;28;20030;-75
2022/06/10 09:23:10;;;;;;;13.48;3.33;;;;;;;18.23;73.08;101956.97;4995075;28;20062;-75
2022/06/10 09:25:45;;;;;;;9.07;2.75;;;;;;;18.32;74.19;101963.69;4995182;28;20034;-75
2022/06/10 09:28:11;;;;;;;8.02;2.35;;;;;;;18.40;72.24;101970.66;4994939;28;20488;-75
2022/06/10 09:30:45;;;;;;;11.60;2.67;;;;;;;18.40;72.25;101976.16;4993902;28;20034;-75
2022/06/10 09:33:32;;;;;;;8.98;2.90;;;;;;;18.48;72.77;101964.78;4995099;28;20026;-76
2022/06/10 09:36:15;;;;;;;16.70;3.10;;;;;;;18.56;74.46;101971.75;4995205;28;20034;-77
2022/06/10 09:40:35;;;;;;;10.63;2.88;;;;;;;18.59;73.13;101973.97;4995040;28;20117;-74
2022/06/10 09:42:13;;;;;;;15.65;3.05;;;;;;;18.63;73.05;101974.28;4994975;28;20100;-74
2022/06/10 09:45:07;;;;;;;11.98;2.78;;;;;;;18.64;74.23;101973.22;4995076;28;20030;-74
2022/06/10 09:47:55;;;;;;;13.27;3.13;;;;;;;18.67;73.24;101964.50;4994800;28;20030;-77
2022/06/10 09:50:50;;;;;;;13.80;2.72;;;;;;;18.69;72.91;101979.63;4993527;28;20033;-75
2022/06/10 09:53:41;;;;;;;15.77;3.30;;;;;;;18.71;73.33;101976.63;4994265;28;20045;-76
2022/06/10 09:56:44;;;;;;;13.95;2.75;;;;;;;18.82;73.98;101975.66;4994811;28;20054;-74
2022/06/10 09:59:19;;;;;;;15.38;3.38;;;;;;;18.90;74.29;101967.06;4994139;28;20030;-74
2022/06/10 10:02:08;;;;;;;8.85;2.85;;;;;;;19.02;74.25;101972.41;4992089;28;20058;-74
2022/06/10 10:04:49;;;;;;;11.93;3.20;;;;;;;19.03;74.29;101970.50;4994811;28;20034;-73
2022/06/10 10:07:23;;;;;;;;;;;;;;;19.16;73.28;101975.59;4995148;28;20030;-74
2022/06/10 10:10:01;;;;;;;11.15;3.25;;;;;;;19.16;73.74;101972.84;4994383;28;20052;-73
2022/06/10 10:12:36;;;;;;;8.13;2.78;;;;;;;19.16;72.19;101972.84;4993827;28;20022;-76
2022/06/10 10:15:17;;;;;;;13.75;3.20;;;;;;;19.19;73.74;101972.34;4974585;28;20383;-76
2022/06/10 10:18:23;;;;;;;13.32;3.08;;;;;;;19.22;73.56;101969.09;4983614;28;20525;-76
2022/06/10 10:21:13;;;;;;;15.80;3.35;;;;;;;19.17;72.91;101971.75;4994184;28;20030;-75
2022/06/10 10:23:48;;;;;;;12.88;2.70;;;;;;;19.12;73.01;101967.03;4988953;28;20461;-75
2022/06/10 10:26:23;;;;;;;12.00;3.15;;;;;;;19.17;73.16;101974.50;4994072;28;20030;-75
2022/06/10 10:28:55;;;;;;;12.68;3.45;;;;;;;19.25;72.31;101976.81;4994078;28;20109;-76
2022/06/10 10:31:23;;;;;;;14.25;3.28;;;;;;;19.43;73.84;101963.81;4993491;28;20425;-75
2022/06/10 10:33:50;;;;;;;10.93;3.08;;;;;;;19.52;72.93;101961.44;4993976;28;20034;-76
2022/06/10 10:36:28;;;;;;;15.40;3.03;;;;;;;19.58;72.79;101955.78;4993570;28;20414;-75
2022/06/10 10:38:53;;;;;;;10.82;3.42;;;;;;;19.66;72.91;101955.28;4993772;28;20529;-75
2022/06/10 10:41:32;;;;;;;15.60;3.10;;;;;;;19.79;72.34;101953.25;4993833;28;20042;-75
2022/06/10 10:44:05;;;;;;;9.73;2.92;;;;;;;19.94;73.61;101952.56;4992806;28;20387;-77
2022/06/10 10:47:09;;;;;;;12.95;3.47;;;;;;;20.04;74.01;101949.91;4992559;28;20054;-77
2022/06/10 10:49:41;;;;;;;10.82;3.20;;;;;;;20.05;70.69;101954.31;4993339;28;20034;-75
2022/06/10 10:52:20;;;;;;;14.07;3.20;;;;;;;20.06;72.14;101955.13;4993669;28;20548;-76
2022/06/10 10:54:51;;;;;;;13.38;3.03;;;;;;;20.02;72.11;101963.09;4993853;28;20375;-75
2022/06/10 10:57:25;;;;;;;14.93;3.47;;;;;;;19.98;71.64;101945.44;4993498;28;20050;-76
2022/06/10 11:00:12;;;;;;;16.38;3.35;;;;;;;19.95;71.39;101963.28;4993882;28;20105;-77
2022/06/10 11:02:40;;;;;;;10.93;3.08;;;;;;;19.92;72.25;101955.56;4991795;28;20120;-77
2022/06/10 11:05:18;;;;;;;13.98;3.80;;;;;;;19.98;71.06;101959.19;4993184;28;20034;-77
2022/06/10 11:07:46;;;;;;;13.52;4.60;;;;;;;19.97;70.53;101954.78;4993522;28;20038;-77
2022/06/10 11:10:24;;;;;;;12.35;3.60;;;;;;;19.93;71.34;101954.47;4993353;28;20026;-77
2022/06/10 11:12:51;;;;;;;13.57;3.15;;;;;;;19.99;72.02;101947.13;4993358;28;20500;-77
2022/06/10 11:15:29;;;;;;;15.50;3.30;;;;;;;20.24;70.07;101954.72;4992932;28;20030;-77
2022/06/10 11:17:57;;;;;;;16.25;4.05;;;;;;;20.31;69.17;101951.75;4993184;28;20031;-79
2022/06/10 11:20:28;;;;;;;13.60;3.50;;;;;;;20.39;68.63;101950.44;4991327;28;20505;-79
2022/06/10 11:23:23;;;;;;;11.00;3.30;;;;;;;20.37;69.25;101947.94;4993168;28;20042;-79
2022/06/10 11:26:10;;;;;;;9.85;2.90;;;;;;;20.33;69.06;101958.63;4990334;28;20105;-77
2022/06/10 11:28:39;;;;;;;14.48;3.20;;;;;;;20.22;68.62;101947.84;4993355;28;20113;-78
2022/06/10 11:31:18;;;;;;;8.75;2.85;;;;;;;20.20;68.79;101948.13;4992476;28;20045;-76
2022/06/10 11:33:46;;;;;;;11.85;3.00;;;;;;;20.23;70.91;101952.22;4993307;28;20034;-77
2022/06/10 11:36:20;;;;;;;14.88;3.10;;;;;;;20.31;71.46;101944.31;4992992;28;20110;-77
2022/06/10 11:38:53;;;;;;;13.55;2.75;;;;;;;20.42;69.52;101941.66;4992996;28;20073;-77
2022/06/10 11:41:31;;;;;;;11.38;2.95;;;;;;;20.45;68.59;101938.38;4992627;28;20034;-77
2022/06/10 11:44:10;;;;;;;14.07;3.35;;;;;;;20.50;67.39;101941.16;4993445;28;20034;-77
2022/06/10 11:47:04;;;;;;;13.88;2.85;;;;;;;20.50;67.61;101936.50;4992882;28;20504;-77
2022/06/10 11:49:53;;;;;;;9.23;2.53;;;;;;;20.62;66.22;101939.03;4992926;28;20034;-78
2022/06/10 11:52:21;;;;;;;10.43;2.38;;;;;;;20.63;65.79;101934.34;4992882;28;20054;-79